Time;durP1;ratioP1;P1;durP2;ratioP2;P2;SDS_P1;SDS_P2;PMS_P1;PMS_P2;Temp;Humidity;BMP_temperature;BMP_pressure;BME280_temperature;BME280_humidity;BME280_pressure;Samples;Min_cycle;Max_cycle;Signal;HPM_P1;HPM_P2
2023/10/18 00:00:57;;;;;;;;;;;19.50;99.90;;;;;;5087209;28;19995;-75
2023/10/18 00:03:24;;;;;;;;;;;19.50;99.90;;;;;;5087173;28;19908;-74
2023/10/18 00:05:50;;;;;;;;;;;19.50;99.90;;;;;;5081728;28;19966;-76
2023/10/18 00:08:17;;;;;;;;;;;19.50;99.90;;;;;;5087442;28;19908;-78
2023/10/18 00:10:42;;;;;;;;;;;19.50;99.90;;;;;;5081570;28;19917;-76
2023/10/18 00:13:08;;;;;;;;;;;19.50;99.90;;;;;;5087837;28;19916;-76
2023/10/18 00:15:34;;;;;;;;;;;19.40;99.90;;;;;;5081791;28;19908;-75
2023/10/18 00:17:59;;;;;;;;;;;19.50;99.90;;;;;;5093370;28;19908;-77
2023/10/18 00:20:25;;;;;;;;;;;19.50;99.90;;;;;;5092625;28;19962;-75
2023/10/18 00:22:51;;;;;;;;;;;19.50;99.90;;;;;;5083997;28;19958;-78
2023/10/18 00:25:18;;;;;;;;;;;19.50;99.90;;;;;;5091515;28;20353;-77
2023/10/18 00:27:45;;;;;;;;;;;19.60;99.90;;;;;;5095003;28;19916;-76
2023/10/18 00:30:11;;;;;;;;;;;19.60;99.90;;;;;;5093090;28;19920;-74
2023/10/18 00:32:38;;;;;;;;;;;19.60;99.90;;;;;;5094921;28;19912;-77
2023/10/18 00:35:12;;;;;;;;;;;19.60;99.90;;;;;;5093704;28;19916;-78
2023/10/18 00:37:50;;;;;;;;;;;19.50;99.90;;;;;;5092174;28;19912;-75
2023/10/18 00:42:53;;;;;;;;;;;19.50;99.90;;;;;;5094081;28;19915;-76
2023/10/18 00:45:21;;;;;;;;;;;19.50;99.90;;;;;;5095722;28;19909;-75
2023/10/18 00:47:46;;;;;;;;;;;19.50;99.90;;;;;;5092856;28;19983;-76
2023/10/18 00:50:14;;;;;;;;;;;19.50;99.90;;;;;;5094860;28;20413;-76
2023/10/18 00:52:39;;;;;;;;;;;19.50;99.90;;;;;;5090969;28;19908;-76
2023/10/18 00:55:05;;;;;;;;;;;19.50;99.90;;;;;;5094125;28;19915;-78
2023/10/18 00:57:35;;;;;;;;;;;19.60;99.90;;;;;;5088538;28;19912;-76
2023/10/18 01:00:06;;;;;;;;;;;19.50;99.90;;;;;;5086150;28;20367;-78
2023/10/18 01:02:35;;;;;;;;;;;19.50;99.90;;;;;;5090007;28;20007;-77
2023/10/18 01:05:03;;;;;;;;;;;19.50;99.90;;;;;;5092853;28;19995;-76
2023/10/18 01:07:29;;;;;;;;;;;19.50;99.90;;;;;;5089332;28;19912;-76
2023/10/18 01:09:54;;;;;;;;;;;19.40;99.90;;;;;;5092383;28;20057;-77
2023/10/18 01:12:20;;;;;;;;;;;19.50;99.90;;;;;;5090710;28;19908;-76
2023/10/18 01:14:46;;;;;;;;;;;19.50;99.90;;;;;;5081999;28;19916;-79
2023/10/18 01:17:11;;;;;;;;;;;19.40;99.90;;;;;;5086476;28;19952;-79
2023/10/18 01:19:40;;;;;;;;;;;19.50;99.90;;;;;;5092571;28;20438;-77
2023/10/18 01:22:06;;;;;;;;;;;19.40;99.90;;;;;;5090225;28;19951;-80
2023/10/18 01:24:35;;;;;;;;;;;19.50;99.90;;;;;;5092337;28;19916;-76
2023/10/18 01:27:02;;;;;;;;;;;19.50;99.90;;;;;;5092184;28;19912;-77
2023/10/18 01:29:28;;;;;;;;;;;19.50;99.90;;;;;;5092133;28;19923;-76
2023/10/18 01:31:54;;;;;;;;;;;19.50;99.90;;;;;;5092469;28;19909;-78
2023/10/18 01:34:20;;;;;;;;;;;19.50;99.90;;;;;;5093249;28;19915;-77
2023/10/18 01:36:46;;;;;;;;;;;19.60;99.90;;;;;;5091312;28;19970;-78
2023/10/18 01:39:20;;;;;;;;;;;19.60;99.90;;;;;;5092893;28;20061;-78
2023/10/18 01:41:47;;;;;;;;;;;19.60;99.90;;;;;;5092500;28;19916;-76
2023/10/18 01:44:18;;;;;;;;;;;19.60;99.90;;;;;;5091520;28;19993;-74
2023/10/18 01:46:46;;;;;;;;;;;19.60;99.90;;;;;;5094203;28;19912;-76
2023/10/18 01:49:24;;;;;;;;;;;19.70;99.90;;;;;;5089627;28;19924;-77
2023/10/18 01:51:51;;;;;;;;;;;19.70;99.90;;;;;;5091892;28;20360;-77
2023/10/18 01:54:18;;;;;;;;;;;19.70;99.90;;;;;;5089680;28;20341;-76
2023/10/18 01:56:46;;;;;;;;;;;19.70;99.90;;;;;;5093412;28;20361;-76
2023/10/18 01:59:17;;;;;;;;;;;19.70;99.90;;;;;;5089925;28;19970;-78
2023/10/18 02:01:51;;;;;;;;;;;19.70;99.90;;;;;;5093111;28;19985;-77
2023/10/18 02:04:24;;;;;;;;;;;19.70;99.90;;;;;;5092203;28;19977;-77
2023/10/18 02:06:50;;;;;;;;;;;19.70;99.90;;;;;;5088917;28;19908;-76
2023/10/18 02:09:16;;;;;;;;;;;19.70;99.90;;;;;;5083840;28;19934;-77
2023/10/18 02:11:42;;;;;;;;;;;19.70;99.90;;;;;;5086341;28;19912;-76
2023/10/18 02:14:08;;;;;;;;;;;19.70;99.90;;;;;;5090262;28;20324;-76
2023/10/18 02:16:33;;;;;;;;;;;19.80;99.90;;;;;;5089985;28;20395;-76
2023/10/18 02:18:59;;;;;;;;;;;19.80;99.90;;;;;;5094234;28;19943;-75
2023/10/18 02:21:25;;;;;;;;;;;19.80;99.90;;;;;;5095254;28;19999;-76
2023/10/18 02:23:52;;;;;;;;;;;19.80;99.90;;;;;;5086553;28;19908;-76
2023/10/18 02:26:30;;;;;;;;;;;19.80;99.90;;;;;;5091440;28;19983;-77
2023/10/18 02:28:59;;;;;;;;;;;19.80;99.90;;;;;;5090039;28;19939;-76
2023/10/18 02:31:25;;;;;;;;;;;19.80;99.90;;;;;;5087544;28;19976;-77
2023/10/18 02:33:53;;;;;;;;;;;19.80;99.90;;;;;;5089528;28;19908;-77
2023/10/18 02:36:22;;;;;;;;;;;19.80;99.90;;;;;;5089109;28;19908;-78
2023/10/18 02:38:52;;;;;;;;;;;19.80;99.90;;;;;;5084860;28;19955;-77
2023/10/18 02:41:21;;;;;;;;;;;19.70;99.90;;;;;;5096821;28;19908;-76
2023/10/18 02:43:48;;;;;;;;;;;19.70;99.90;;;;;;5097694;28;19999;-78
2023/10/18 02:46:23;;;;;;;;;;;19.80;99.90;;;;;;5097103;28;19915;-77
2023/10/18 02:48:53;;;;;;;;;;;19.80;99.90;;;;;;5085617;28;20284;-78
2023/10/18 02:51:26;;;;;;;;;;;19.80;99.90;;;;;;5077353;28;19951;-79
2023/10/18 02:53:53;;;;;;;;;;;19.80;99.90;;;;;;5079334;28;20439;-76
2023/10/18 02:56:27;;;;;;;;;;;19.80;99.90;;;;;;5079080;28;19916;-77
2023/10/18 02:58:55;;;;;;;;;;;19.80;99.90;;;;;;5078692;28;20009;-76
2023/10/18 03:01:21;;;;;;;;;;;19.80;99.90;;;;;;5078434;28;19913;-78
2023/10/18 03:03:54;;;;;;;;;;;19.90;99.90;;;;;;5078708;28;19909;-76
2023/10/18 03:06:24;;;;;;;;;;;19.80;99.90;;;;;;5084790;28;19912;-79
2023/10/18 03:08:50;;;;;;;;;;;19.90;99.90;;;;;;5078895;28;19916;-77
2023/10/18 03:11:20;;;;;;;;;;;19.90;99.90;;;;;;5090733;28;20824;-77
2023/10/18 03:13:46;;;;;;;;;;;19.90;99.90;;;;;;5095902;28;19922;-76
2023/10/18 03:18:37;;;;;;;;;;;19.90;99.90;;;;;;5097344;28;19908;-78
2023/10/18 03:21:07;;;;;;;;;;;19.90;99.90;;;;;;5097762;28;19908;-76
2023/10/18 03:23:33;;;;;;;;;;;19.90;99.90;;;;;;5096835;28;19908;-77
2023/10/18 03:25:59;;;;;;;;;;;19.90;99.90;;;;;;5098017;28;20029;-80
2023/10/18 03:28:25;;;;;;;;;;;19.90;99.90;;;;;;5095865;28;19995;-76
2023/10/18 03:30:51;;;;;;;;;;;19.90;99.90;;;;;;5095046;28;19928;-79
2023/10/18 03:33:18;;;;;;;;;;;19.90;99.90;;;;;;5095479;28;19927;-76
2023/10/18 03:35:49;;;;;;;;;;;19.90;99.90;;;;;;5089651;28;19908;-76
2023/10/18 03:38:18;;;;;;;;;;;20.00;99.90;;;;;;5083187;28;20338;-75
2023/10/18 03:40:56;;;;;;;;;;;20.00;99.90;;;;;;5081254;28;19915;-76
2023/10/18 03:43:26;;;;;;;;;;;19.90;99.90;;;;;;5087380;28;20301;-76
2023/10/18 03:48:54;;;;;;;;;;;19.90;99.90;;;;;;5073801;28;19908;-77
2023/10/18 03:51:25;;;;;;;;;;;20.00;99.90;;;;;;5076647;28;20356;-75
2023/10/18 03:53:53;;;;;;;;;;;20.00;99.90;;;;;;5079254;28;19912;-78
2023/10/18 03:56:21;;;;;;;;;;;20.00;99.90;;;;;;5074213;28;19909;-75
2023/10/18 03:59:00;;;;;;;;;;;20.00;99.90;;;;;;5075472;28;19916;-77
2023/10/18 04:01:35;;;;;;;;;;;19.90;99.90;;;;;;5091051;28;19908;-76
2023/10/18 04:04:05;;;;;;;;;;;19.90;99.90;;;;;;5094310;28;19908;-74
2023/10/18 04:06:32;;;;;;;;;;;20.00;99.90;;;;;;5093888;28;19908;-76
2023/10/18 04:08:58;;;;;;;;;;;20.00;99.90;;;;;;5086583;28;19912;-76
2023/10/18 04:11:26;;;;;;;;;;;20.00;99.90;;;;;;5087967;28;20429;-77
2023/10/18 04:13:52;;;;;;;;;;;19.90;99.90;;;;;;5078484;28;19931;-77
2023/10/18 04:16:18;;;;;;;;;;;20.00;99.90;;;;;;5094708;28;19912;-76
2023/10/18 04:18:44;;;;;;;;;;;20.00;99.90;;;;;;5090427;28;19908;-75
2023/10/18 04:21:15;;;;;;;;;;;20.10;99.90;;;;;;5094379;28;19919;-76
2023/10/18 04:23:46;;;;;;;;;;;20.00;99.90;;;;;;5077775;28;19908;-75
2023/10/18 04:26:18;;;;;;;;;;;20.10;99.90;;;;;;5083680;28;19912;-77
2023/10/18 04:28:45;;;;;;;;;;;20.10;99.90;;;;;;5082398;28;19917;-74
2023/10/18 04:31:14;;;;;;;;;;;20.10;99.90;;;;;;5079878;28;19916;-75
2023/10/18 04:33:49;;;;;;;;;;;20.10;99.90;;;;;;5078507;28;19998;-78
2023/10/18 04:36:15;;;;;;;;;;;20.10;99.90;;;;;;5079148;28;19908;-77
2023/10/18 04:38:47;;;;;;;;;;;20.10;99.90;;;;;;5078469;28;19908;-74
2023/10/18 04:44:07;;;;;;;;;;;20.10;99.90;;;;;;5097201;28;19919;-76
2023/10/18 04:46:35;;;;;;;;;;;20.20;99.90;;;;;;5095279;28;19912;-75
2023/10/18 04:49:16;;;;;;;;;;;20.20;99.90;;;;;;5096351;28;19908;-74
2023/10/18 04:54:09;;;;;;;;;;;20.10;99.90;;;;;;5096139;28;19931;-76
2023/10/18 04:56:37;;;;;;;;;;;20.10;99.90;;;;;;5096099;28;19912;-76
2023/10/18 04:59:09;;;;;;;;;;;20.10;99.90;;;;;;5091345;28;19908;-76
2023/10/18 05:01:36;;;;;;;;;;;20.00;99.90;;;;;;5092356;28;19943;-75
2023/10/18 05:06:54;;;;;;;;;;;20.00;99.90;;;;;;5085175;28;20580;-75
2023/10/18 05:09:29;;;;;;;;;;;20.00;99.90;;;;;;5093888;28;19923;-76
2023/10/18 05:11:59;;;;;;;;;;;20.00;99.90;;;;;;5093379;28;19915;-76
2023/10/18 05:14:43;;;;;;;;;;;20.00;99.90;;;;;;5094651;28;19912;-76
2023/10/18 05:17:18;;;;;;;;;;;20.00;99.90;;;;;;5095401;28;19993;-76
2023/10/18 05:19:44;;;;;;;;;;;20.00;99.90;;;;;;5095537;28;20491;-78
2023/10/18 05:22:17;;;;;;;;;;;20.00;99.90;;;;;;5095519;28;20388;-79
2023/10/18 05:24:47;;;;;;;;;;;20.00;99.90;;;;;;5095435;28;20001;-78
2023/10/18 05:27:24;;;;;;;;;;;20.00;99.90;;;;;;5086787;28;19916;-76
2023/10/18 05:29:54;;;;;;;;;;;20.00;99.90;;;;;;5082460;28;20388;-78
2023/10/18 05:32:39;;;;;;;;;;;20.00;99.90;;;;;;5083744;28;19974;-80
2023/10/18 05:38:00;;;;;;;;;;;20.00;99.90;;;;;;5071440;28;19948;-78
2023/10/18 05:43:05;;;;;;;;;;;20.00;99.90;;;;;;5088936;28;19908;-78
2023/10/18 05:45:31;;;;;;;;;;;20.10;99.90;;;;;;5084421;28;20474;-79
2023/10/18 05:48:12;;;;;;;;;;;20.10;99.90;;;;;;5080078;28;19908;-76
2023/10/18 05:50:38;;;;;;;;;;;20.10;99.90;;;;;;5084011;28;19912;-78
2023/10/18 05:53:10;;;;;;;;;;;20.10;99.90;;;;;;5077368;28;19916;-76
2023/10/18 05:55:38;;;;;;;;;;;20.10;99.90;;;;;;5078255;28;19916;-76
2023/10/18 05:58:04;;;;;;;;;;;20.10;99.90;;;;;;5076780;28;19942;-81
2023/10/18 06:00:33;;;;;;;;;;;20.10;99.90;;;;;;5086140;28;19917;-78
2023/10/18 06:03:01;;;;;;;;;;;20.10;99.90;;;;;;5084968;28;19955;-80
2023/10/18 06:05:35;;;;;;;;;;;20.00;99.90;;;;;;5084098;28;20011;-76
2023/10/18 06:08:01;;;;;;;;;;;20.00;99.90;;;;;;5086661;28;19912;-80
2023/10/18 06:10:27;;;;;;;;;;;20.00;99.90;;;;;;5079982;28;19984;-81
2023/10/18 06:13:08;;;;;;;;;;;20.00;99.90;;;;;;5079181;28;19920;-77
2023/10/18 06:15:44;;;;;;;;;;;20.00;99.90;;;;;;5078495;28;19912;-81
2023/10/18 06:18:16;;;;;;;;;;;20.10;99.90;;;;;;5080638;28;19915;-82
2023/10/18 06:20:44;;;;;;;;;;;20.00;99.90;;;;;;5078407;28;19916;-78
2023/10/18 06:23:55;;;;;;;;;;;20.00;99.90;;;;;;5080853;28;19915;-76
2023/10/18 06:26:00;;;;;;;;;;;20.00;99.90;;;;;;5077900;28;20296;-80
2023/10/18 06:28:30;;;;;;;;;;;19.90;99.90;;;;;;5076732;28;20345;-79
2023/10/18 06:30:56;;;;;;;;;;;19.90;99.90;;;;;;5078205;28;19959;-80
2023/10/18 06:33:22;;;;;;;;;;;19.90;99.90;;;;;;5076933;28;19916;-81
2023/10/18 06:35:51;;;;;;;;;;;20.00;99.90;;;;;;5085882;28;19983;-80
2023/10/18 06:38:24;;;;;;;;;;;20.00;99.90;;;;;;5080404;28;19912;-78
2023/10/18 06:40:53;;;;;;;;;;;20.00;99.90;;;;;;5077662;28;19909;-78
2023/10/18 06:43:21;;;;;;;;;;;20.00;99.90;;;;;;5074455;28;19931;-80
2023/10/18 06:45:48;;;;;;;;;;;20.00;99.90;;;;;;5086182;28;19912;-81
2023/10/18 06:48:14;;;;;;;;;;;20.10;99.90;;;;;;5082617;28;19908;-80
2023/10/18 06:50:40;;;;;;;;;;;20.10;99.90;;;;;;5083830;28;19912;-79
2023/10/18 06:53:06;;;;;;;;;;;20.10;99.90;;;;;;5076587;28;19919;-82
2023/10/18 07:00:51;;;;;;;;;;;20.20;99.90;;;;;;5066843;28;19966;-81
2023/10/18 07:03:31;;;;;;;;;;;20.20;99.90;;;;;;5078887;28;20012;-77
2023/10/18 07:05:57;;;;;;;;;;;20.30;99.90;;;;;;5079767;28;19909;-78
2023/10/18 07:08:29;;;;;;;;;;;20.40;99.90;;;;;;5091338;28;19918;-77
2023/10/18 07:10:55;;;;;;;;;;;20.50;99.90;;;;;;5092467;28;19966;-77
2023/10/18 07:13:32;;;;;;;;;;;20.60;99.90;;;;;;5093446;28;19909;-80
2023/10/18 07:16:03;;;;;;;;;;;20.60;99.90;;;;;;5092333;28;19919;-82
2023/10/18 07:18:33;;;;;;;;;;;20.70;99.90;;;;;;5090810;28;19915;-77
2023/10/18 07:21:05;;;;;;;;;;;20.80;99.90;;;;;;5095382;28;19953;-78
2023/10/18 07:23:39;;;;;;;;;;;20.80;99.90;;;;;;5089946;28;19916;-84
2023/10/18 07:26:13;;;;;;;;;;;20.90;99.90;;;;;;5093962;28;19912;-84
2023/10/18 07:28:40;;;;;;;;;;;21.00;99.90;;;;;;5093663;28;19927;-78
2023/10/18 07:31:09;;;;;;;;;;;21.00;99.90;;;;;;5094824;28;20406;-78
2023/10/18 07:33:40;;;;;;;;;;;21.00;99.90;;;;;;5092790;28;19908;-77
2023/10/18 07:36:09;;;;;;;;;;;21.00;99.90;;;;;;5090581;28;19943;-81
2023/10/18 07:38:39;;;;;;;;;;;21.10;99.90;;;;;;5089239;28;19908;-82
2023/10/18 07:41:07;;;;;;;;;;;21.10;99.90;;;;;;5096771;28;19915;-83
2023/10/18 07:43:33;;;;;;;;;;;21.10;99.90;;;;;;5089923;28;20311;-82
2023/10/18 07:46:04;;;;;;;;;;;21.10;99.90;;;;;;5085974;28;19920;-79
2023/10/18 07:48:30;;;;;;;;;;;21.20;99.90;;;;;;5085520;28;19916;-80
2023/10/18 07:50:58;;;;;;;;;;;21.20;99.90;;;;;;5085170;28;19969;-84
2023/10/18 07:53:24;;;;;;;;;;;21.20;99.90;;;;;;5082975;28;19909;-80
2023/10/18 07:55:57;;;;;;;;;;;21.30;99.90;;;;;;5079865;28;19918;-77
2023/10/18 07:58:25;;;;;;;;;;;21.40;99.90;;;;;;5079113;28;19915;-80
2023/10/18 08:03:29;;;;;;;;;;;21.50;99.90;;;;;;5079685;28;20382;-78
2023/10/18 08:05:55;;;;;;;;;;;21.60;99.90;;;;;;5077472;28;19916;-82
2023/10/18 08:08:24;;;;;;;;;;;21.60;99.90;;;;;;5078572;28;20399;-79
2023/10/18 08:10:53;;;;;;;;;;;21.70;99.90;;;;;;5087240;28;19923;-82
2023/10/18 08:13:25;;;;;;;;;;;21.80;99.90;;;;;;5089374;28;19908;-78
2023/10/18 08:15:54;;;;;;;;;;;22.00;99.90;;;;;;5087739;28;19908;-82
2023/10/18 08:18:39;;;;;;;;;;;22.20;99.90;;;;;;5087549;28;20486;-81
2023/10/18 08:21:08;;;;;;;;;;;22.30;99.90;;;;;;5090583;28;19918;-78
2023/10/18 08:26:05;;;;;;;;;;;22.70;99.90;;;;;;5092424;28;20005;-79
2023/10/18 08:28:42;;;;;;;;;;;22.60;99.90;;;;;;5065912;28;19924;-84
2023/10/18 08:31:11;;;;;;;;;;;22.50;99.90;;;;;;5075614;28;19923;-84
2023/10/18 08:33:36;;;;;;;;;;;22.40;99.90;;;;;;5083946;28;19908;-83
2023/10/18 08:36:07;;;;;;;;;;;22.50;99.90;;;;;;5076269;28;20003;-80
2023/10/18 08:38:33;;;;;;;;;;;22.50;99.90;;;;;;5077632;28;19912;-82
2023/10/18 08:41:15;;;;;;;;;;;22.60;99.90;;;;;;5076915;28;20400;-79
2023/10/18 08:43:48;;;;;;;;;;;22.70;99.90;;;;;;5080602;28;19913;-80
2023/10/18 08:46:14;;;;;;;;;;;22.80;99.90;;;;;;5080455;28;19987;-82
2023/10/18 08:48:40;;;;;;;;;;;22.70;99.90;;;;;;5074985;28;20367;-82
2023/10/18 08:51:06;;;;;;;;;;;22.60;99.90;;;;;;5077738;28;19916;-81
2023/10/18 08:53:33;;;;;;;;;;;22.50;99.90;;;;;;5074807;28;19909;-79
2023/10/18 08:55:59;;;;;;;;;;;22.50;99.90;;;;;;5082853;28;19944;-80
2023/10/18 08:58:31;;;;;;;;;;;22.50;99.90;;;;;;5079252;28;19920;-82
2023/10/18 09:03:27;;;;;;;;;;;22.60;99.90;;;;;;5072933;28;20280;-79
2023/10/18 09:06:04;;;;;;;;;;;22.60;99.90;;;;;;5076033;28;19920;-80
2023/10/18 09:08:38;;;;;;;;;;;22.70;99.90;;;;;;5072739;28;19916;-84
2023/10/18 09:11:22;;;;;;;;;;;22.70;99.90;;;;;;5076078;28;20351;-80
2023/10/18 09:17:00;;;;;;;;;;;22.80;99.90;;;;;;5089701;28;19995;-84
2023/10/18 09:19:27;;;;;;;;;;;22.90;99.90;;;;;;5078780;28;19935;-84
2023/10/18 09:22:02;;;;;;;;;;;23.10;99.90;;;;;;5079324;28;20291;-83
2023/10/18 09:24:32;;;;;;;;;;;23.30;99.90;;;;;;5074346;28;20289;-86
2023/10/18 09:26:58;;;;;;;;;;;23.30;99.90;;;;;;5076512;28;20292;-87
2023/10/18 09:29:26;;;;;;;;;;;23.30;99.90;;;;;;5076479;28;20007;-83
2023/10/18 09:31:54;;;;;;;;;;;23.50;99.90;;;;;;5076685;28;19955;-83
2023/10/18 09:34:20;;;;;;;;;;;23.60;99.90;;;;;;5075739;28;19912;-83
2023/10/18 09:36:56;;;;;;;;;;;23.80;99.90;;;;;;5076785;28;19940;-84
2023/10/18 09:39:24;;;;;;;;;;;24.10;99.90;;;;;;5078112;28;19916;-84
2023/10/18 09:41:49;;;;;;;;;;;24.10;99.90;;;;;;5075550;28;19927;-84
2023/10/18 09:44:18;;;;;;;;;;;24.20;99.90;;;;;;5079440;28;19912;-81
2023/10/18 09:46:48;;;;;;;;;;;24.40;99.90;;;;;;5076273;28;19931;-84
2023/10/18 09:49:21;;;;;;;;;;;24.30;99.90;;;;;;5073779;28;19955;-79
2023/10/18 09:51:53;;;;;;;;;;;24.30;99.90;;;;;;5076659;28;19995;-78
2023/10/18 09:54:21;;;;;;;;;;;24.30;99.90;;;;;;5075727;28;19995;-77
2023/10/18 09:56:48;;;;;;;;;;;24.20;99.90;;;;;;5076778;28;19909;-79
2023/10/18 09:59:25;;;;;;;;;;;24.10;99.90;;;;;;5073761;28;19909;-81
2023/10/18 10:02:00;;;;;;;;;;;24.00;99.90;;;;;;5074573;28;19908;-75
2023/10/18 10:04:26;;;;;;;;;;;24.00;99.90;;;;;;5079157;28;19940;-79
2023/10/18 10:07:27;;;;;;;;;;;24.10;99.90;;;;;;5078659;28;19909;-79
2023/10/18 10:09:46;;;;;;;;;;;24.20;99.90;;;;;;5074689;28;20284;-79
2023/10/18 10:12:14;;;;;;;;;;;24.20;99.90;;;;;;5079017;28;19908;-76
2023/10/18 10:14:40;;;;;;;;;;;24.30;99.90;;;;;;5076477;28;19908;-83
2023/10/18 10:17:08;;;;;;;;;;;24.40;99.90;;;;;;5076514;28;20016;-78
2023/10/18 10:19:37;;;;;;;;;;;24.30;99.90;;;;;;5077624;28;19920;-84
2023/10/18 10:22:06;;;;;;;;;;;24.40;99.90;;;;;;5082407;28;19911;-84
2023/10/18 10:24:33;;;;;;;;;;;24.50;99.90;;;;;;5075786;28;19995;-83
2023/10/18 10:27:21;;;;;;;;;;;24.70;99.90;;;;;;5076606;28;19916;-83
2023/10/18 10:29:56;;;;;;;;;;;24.80;99.90;;;;;;5072163;28;20376;-78
2023/10/18 10:32:23;;;;;;;;;;;24.80;99.90;;;;;;5074578;28;20079;-85
2023/10/18 10:34:51;;;;;;;;;;;24.90;99.90;;;;;;5069364;28;19913;-83
2023/10/18 10:37:23;;;;;;;;;;;24.90;99.90;;;;;;5076206;28;19958;-85
2023/10/18 10:39:51;;;;;;;;;;;24.70;99.90;;;;;;5081231;28;19912;-84
2023/10/18 10:42:43;;;;;;;;;;;24.80;99.90;;;;;;5078310;28;19954;-84
2023/10/18 10:47:43;;;;;;;;;;;24.90;99.90;;;;;;5082801;28;19915;-84
2023/10/18 10:50:10;;;;;;;;;;;24.80;99.90;;;;;;5078669;28;19917;-85
2023/10/18 10:52:40;;;;;;;;;;;24.80;99.90;;;;;;5079759;28;19908;-82
2023/10/18 10:55:21;;;;;;;;;;;24.80;99.90;;;;;;5078657;28;19908;-83
2023/10/18 10:57:47;;;;;;;;;;;24.70;99.90;;;;;;5076888;28;19930;-84
2023/10/18 11:00:37;;;;;;;;;;;24.80;99.90;;;;;;5082316;28;19913;-82
2023/10/18 11:03:24;;;;;;;;;;;24.80;99.90;;;;;;5083765;28;20320;-84
2023/10/18 11:05:53;;;;;;;;;;;24.80;99.90;;;;;;5075577;28;19912;-84
2023/10/18 11:08:19;;;;;;;;;;;24.80;99.90;;;;;;5079467;28;19936;-84
2023/10/18 11:10:44;;;;;;;;;;;25.00;99.90;;;;;;5078635;28;20297;-84
2023/10/18 11:13:13;;;;;;;;;;;25.10;99.90;;;;;;5078220;28;19999;-83
2023/10/18 11:15:42;;;;;;;;;;;25.30;99.90;;;;;;5080382;28;20363;-84
2023/10/18 11:18:20;;;;;;;;;;;25.40;99.90;;;;;;5075264;28;19940;-83
2023/10/18 11:21:38;;;;;;;;;;;25.40;99.90;;;;;;5079426;28;19909;-83
2023/10/18 11:23:37;;;;;;;;;;;25.30;99.90;;;;;;5073895;28;19916;-80
2023/10/18 11:26:09;;;;;;;;;;;25.30;99.90;;;;;;5078515;28;20292;-83
2023/10/18 11:28:37;;;;;;;;;;;25.30;99.90;;;;;;5073969;28;19924;-82
2023/10/18 11:31:04;;;;;;;;;;;25.20;99.90;;;;;;5081413;28;19924;-82
2023/10/18 11:33:56;;;;;;;;;;;25.10;99.90;;;;;;5077709;28;19974;-83
2023/10/18 11:36:21;;;;;;;;;;;25.00;99.90;;;;;;5075604;28;19916;-85
2023/10/18 11:39:33;;;;;;;;;;;24.90;99.90;;;;;;5077393;28;19924;-83
2023/10/18 11:41:37;;;;;;;;;;;24.80;99.90;;;;;;5076405;28;19970;-81
2023/10/18 11:44:16;;;;;;;;;;;24.90;99.90;;;;;;5080951;28;19916;-81
2023/10/18 11:46:56;;;;;;;;;;;24.80;99.90;;;;;;5079190;28;19915;-83
2023/10/18 11:49:22;;;;;;;;;;;24.80;99.90;;;;;;5078706;28;19913;-84
2023/10/18 11:51:51;;;;;;;;;;;24.80;99.90;;;;;;5078961;28;20288;-78
2023/10/18 11:54:30;;;;;;;;;;;24.90;99.90;;;;;;5076977;28;19912;-77
2023/10/18 11:56:58;;;;;;;;;;;25.00;99.90;;;;;;5083123;28;19908;-77
2023/10/18 11:59:24;;;;;;;;;;;25.20;99.90;;;;;;5075271;28;19914;-78
2023/10/18 12:01:57;;;;;;;;;;;25.30;99.90;;;;;;5080798;28;19952;-76
2023/10/18 12:04:37;;;;;;;;;;;25.40;99.90;;;;;;5076247;28;19985;-79
2023/10/18 12:07:03;;;;;;;;;;;25.40;99.90;;;;;;5075682;28;20300;-80
2023/10/18 12:09:31;;;;;;;;;;;25.40;99.90;;;;;;5072061;28;19931;-77
2023/10/18 12:11:56;;;;;;;;;;;25.40;99.90;;;;;;5080222;28;20299;-79
2023/10/18 12:14:22;;;;;;;;;;;25.40;99.90;;;;;;5076001;28;19956;-80
2023/10/18 12:16:52;;;;;;;;;;;25.40;99.90;;;;;;5079097;28;19959;-77
2023/10/18 12:19:18;;;;;;;;;;;25.30;99.90;;;;;;5075149;28;19915;-79
2023/10/18 12:21:54;;;;;;;;;;;25.30;99.90;;;;;;5077767;28;19909;-77
2023/10/18 12:24:20;;;;;;;;;;;25.40;99.90;;;;;;5068416;28;19920;-77
2023/10/18 12:26:53;;;;;;;;;;;25.30;99.90;;;;;;5075984;28;19913;-75
2023/10/18 12:29:20;;;;;;;;;;;25.20;99.90;;;;;;5074371;28;19938;-76
2023/10/18 12:31:52;;;;;;;;;;;25.10;99.90;;;;;;5082467;28;19965;-77
2023/10/18 12:34:21;;;;;;;;;;;25.20;99.90;;;;;;5085589;28;19908;-76
2023/10/18 12:36:49;;;;;;;;;;;25.30;99.90;;;;;;5080977;28;19919;-77
2023/10/18 12:39:20;;;;;;;;;;;25.50;99.90;;;;;;5085995;28;19931;-77
2023/10/18 12:41:52;;;;;;;;;;;25.50;99.90;;;;;;5078195;28;19909;-75
2023/10/18 12:44:18;;;;;;;;;;;25.80;99.90;;;;;;5072242;28;20000;-76
2023/10/18 12:46:44;;;;;;;;;;;26.00;99.90;;;;;;5085455;28;19955;-76
2023/10/18 12:49:11;;;;;;;;;;;25.90;99.90;;;;;;5075903;28;19908;-76
2023/10/18 12:51:43;;;;;;;;;;;25.80;99.90;;;;;;5069682;28;20359;-76
2023/10/18 12:54:10;;;;;;;;;;;25.70;99.90;;;;;;5089200;28;19936;-76
2023/10/18 12:56:38;;;;;;;;;;;25.70;99.90;;;;;;5092601;28;19908;-76
2023/10/18 13:01:42;;;;;;;;;;;25.70;99.90;;;;;;5087100;28;19939;-76
2023/10/18 13:04:17;;;;;;;;;;;25.60;99.90;;;;;;5083497;28;19919;-76
2023/10/18 13:06:43;;;;;;;;;;;25.60;99.90;;;;;;5075944;28;19912;-76
2023/10/18 13:09:15;;;;;;;;;;;25.50;99.90;;;;;;5083002;28;20398;-76
2023/10/18 13:16:56;;;;;;;;;;;25.30;99.90;;;;;;5095842;28;19938;-75
2023/10/18 13:19:23;;;;;;;;;;;25.10;99.90;;;;;;5095946;28;20360;-76
2023/10/18 13:21:50;;;;;;;;;;;25.10;99.90;;;;;;5095598;28;19912;-75
2023/10/18 13:26:53;;;;;;;;;;;25.50;99.90;;;;;;5076104;28;19909;-75
2023/10/18 13:31:57;;;;;;;;;;;26.00;99.90;;;;;;5061937;28;21639;-75
2023/10/18 13:34:23;;;;;;;;;;;26.00;99.90;;;;;;5090284;28;20341;-75
2023/10/18 13:36:50;;;;;;;;;;;26.00;99.90;;;;;;5095144;28;20375;-75
2023/10/18 13:39:16;;;;;;;;;;;25.90;99.90;;;;;;5080943;28;19908;-75
2023/10/18 13:41:46;;;;;;;;;;;25.80;99.90;;;;;;5080616;28;19908;-75
2023/10/18 13:44:19;;;;;;;;;;;25.60;99.90;;;;;;5087499;28;20280;-75
2023/10/18 13:46:47;;;;;;;;;;;25.60;99.90;;;;;;5083197;28;19919;-75
2023/10/18 13:49:12;;;;;;;;;;;25.60;99.90;;;;;;5082590;28;19912;-75
2023/10/18 13:51:38;;;;;;;;;;;25.70;99.90;;;;;;5088641;28;19915;-75
2023/10/18 13:54:04;;;;;;;;;;;25.70;99.90;;;;;;5087399;28;20070;-76
2023/10/18 13:56:30;;;;;;;;;;;25.50;99.90;;;;;;5089482;28;19912;-76
2023/10/18 13:58:56;;;;;;;;;;;25.60;99.90;;;;;;5087541;28;20039;-76
2023/10/18 14:01:24;;;;;;;;;;;25.60;99.90;;;;;;5081669;28;19935;-76
2023/10/18 14:03:51;;;;;;;;;;;25.90;99.90;;;;;;5081707;28;19912;-76
2023/10/18 14:06:16;;;;;;;;;;;26.10;99.90;;;;;;5082625;28;19909;-79
2023/10/18 14:08:43;;;;;;;;;;;26.30;99.90;;;;;;5082169;28;20019;-76
2023/10/18 14:11:09;;;;;;;;;;;26.10;99.90;;;;;;5079423;28;20322;-76
2023/10/18 14:13:36;;;;;;;;;;;25.90;99.90;;;;;;5082096;28;19912;-76
2023/10/18 14:16:02;;;;;;;;;;;25.60;99.90;;;;;;5094537;28;19908;-76
2023/10/18 14:18:27;;;;;;;;;;;25.40;99.90;;;;;;5089544;28;20391;-76
2023/10/18 14:20:53;;;;;;;;;;;25.30;99.90;;;;;;5075823;28;20385;-78
2023/10/18 14:23:27;;;;;;;;;;;25.20;99.90;;;;;;5081191;28;20388;-79
2023/10/18 14:25:56;;;;;;;;;;;25.00;99.90;;;;;;5083461;28;19919;-75
2023/10/18 14:28:21;;;;;;;;;;;24.90;99.90;;;;;;5086138;28;19921;-77
2023/10/18 14:30:47;;;;;;;;;;;24.80;99.90;;;;;;5080216;28;19912;-75
2023/10/18 14:33:12;;;;;;;;;;;24.70;99.90;;;;;;5086625;28;19912;-75
2023/10/18 14:35:38;;;;;;;;;;;24.50;99.90;;;;;;5085016;28;19908;-75
2023/10/18 14:38:06;;;;;;;;;;;24.30;99.90;;;;;;5069965;28;19996;-75
2023/10/18 14:40:34;;;;;;;;;;;24.20;99.90;;;;;;5080551;28;19948;-75
2023/10/18 14:43:01;;;;;;;;;;;24.20;99.90;;;;;;5079926;28;20655;-75
2023/10/18 14:45:32;;;;;;;;;;;24.10;99.90;;;;;;5081096;28;19916;-75
2023/10/18 14:47:58;;;;;;;;;;;24.00;99.90;;;;;;5080344;28;19912;-75
2023/10/18 14:50:26;;;;;;;;;;;23.90;99.90;;;;;;5081450;28;20395;-75
2023/10/18 14:52:52;;;;;;;;;;;23.80;99.90;;;;;;5088687;28;19919;-75
2023/10/18 14:55:17;;;;;;;;;;;23.70;99.90;;;;;;5093129;28;19908;-73
2023/10/18 14:57:43;;;;;;;;;;;23.60;99.90;;;;;;5081544;28;19917;-75
2023/10/18 15:00:11;;;;;;;;;;;23.60;99.90;;;;;;5078647;28;20007;-74
2023/10/18 15:02:40;;;;;;;;;;;23.50;99.90;;;;;;5078390;28;20007;-74
2023/10/18 15:05:09;;;;;;;;;;;23.50;99.90;;;;;;5081199;28;19908;-74
2023/10/18 15:07:36;;;;;;;;;;;23.40;99.90;;;;;;5077864;28;19955;-74
2023/10/18 15:10:02;;;;;;;;;;;23.40;99.90;;;;;;5081064;28;20314;-74
2023/10/18 15:12:27;;;;;;;;;;;23.30;99.90;;;;;;5080138;28;19920;-74
2023/10/18 15:14:53;;;;;;;;;;;23.20;99.90;;;;;;5077733;28;19995;-73
2023/10/18 15:17:19;;;;;;;;;;;23.10;99.90;;;;;;5082437;28;19924;-74
2023/10/18 15:19:44;;;;;;;;;;;23.00;99.90;;;;;;5078858;28;19922;-74
2023/10/18 15:22:12;;;;;;;;;;;23.00;99.90;;;;;;5079798;28;19908;-74